createdAt,value
2017-05-02T00:02:02.917Z,8.80
2017-05-02T00:04:30.555Z,8.80
2017-05-02T00:06:58.200Z,8.80
2017-05-02T00:09:25.836Z,8.80
2017-05-02T00:11:53.468Z,8.80
2017-05-02T00:14:21.068Z,8.70
2017-05-02T00:16:48.651Z,8.70
2017-05-02T00:19:16.980Z,8.70
2017-05-02T00:21:44.567Z,8.70
2017-05-02T00:24:13.368Z,8.70
2017-05-02T00:26:40.979Z,8.80
2017-05-02T00:29:09.328Z,8.80
2017-05-02T00:31:37.648Z,8.80
2017-05-02T00:34:05.249Z,8.80
2017-05-02T00:36:33.509Z,8.80
2017-05-02T00:39:01.089Z,8.80
2017-05-02T00:41:28.694Z,8.80
2017-05-02T00:43:57.049Z,8.60
2017-05-02T00:46:24.666Z,8.70
2017-05-02T00:48:52.304Z,8.60
2017-05-02T00:51:19.868Z,8.60
2017-05-02T00:53:47.471Z,8.70
2017-05-02T00:56:15.132Z,8.60
2017-05-02T00:58:42.763Z,8.70
2017-05-02T01:01:10.337Z,8.70
2017-05-02T01:03:37.948Z,8.60
2017-05-02T01:06:05.480Z,8.70
2017-05-02T01:08:33.025Z,8.70
2017-05-02T01:11:00.672Z,8.70
2017-05-02T01:13:28.314Z,8.60
2017-05-02T01:15:55.957Z,8.50
2017-05-02T01:18:23.536Z,8.60
2017-05-02T01:20:51.208Z,8.70
2017-05-02T01:23:18.762Z,8.60
2017-05-02T01:25:46.381Z,8.60
2017-05-02T01:28:14.972Z,8.60
2017-05-02T01:30:42.644Z,8.60
2017-05-02T01:33:10.273Z,8.60
2017-05-02T01:35:37.923Z,8.60
2017-05-02T01:38:06.256Z,8.70
2017-05-02T01:40:33.856Z,8.70
2017-05-02T01:43:01.473Z,8.70
2017-05-02T01:45:29.777Z,8.50
2017-05-02T01:47:57.520Z,8.50
2017-05-02T01:50:25.110Z,8.60
2017-05-02T01:52:52.715Z,8.60
2017-05-02T01:55:20.379Z,8.70
2017-05-02T01:57:47.958Z,8.70
2017-05-02T02:00:15.543Z,8.50
2017-05-02T02:02:43.885Z,8.60
2017-05-02T02:05:11.508Z,8.60
2017-05-02T02:07:39.784Z,8.60
2017-05-02T02:10:07.422Z,8.60
2017-05-02T02:12:35.036Z,8.60
2017-05-02T02:15:02.633Z,8.60
2017-05-02T02:17:30.202Z,8.60
2017-05-02T02:19:57.748Z,8.50
2017-05-02T02:22:25.307Z,8.50
2017-05-02T02:24:52.951Z,8.50
2017-05-02T02:27:20.559Z,8.40
2017-05-02T02:29:48.177Z,8.40
2017-05-02T02:32:16.564Z,8.40
2017-05-02T02:34:45.008Z,8.40
2017-05-02T02:37:13.690Z,8.50
2017-05-02T02:39:41.256Z,8.40
2017-05-02T02:42:08.852Z,8.40
2017-05-02T02:44:36.396Z,8.40
2017-05-02T02:47:03.991Z,8.40
2017-05-02T02:49:31.640Z,8.40
2017-05-02T02:51:59.247Z,8.40
2017-05-02T02:54:26.068Z,8.40
2017-05-02T02:56:54.392Z,8.50
2017-05-02T02:59:21.961Z,8.40
2017-05-02T03:01:49.528Z,8.50
2017-05-02T03:04:17.108Z,8.50
2017-05-02T03:06:44.708Z,8.40
2017-05-02T03:09:13.785Z,8.50
2017-05-02T03:11:42.091Z,8.50
2017-05-02T03:14:09.695Z,8.50
2017-05-02T03:16:37.288Z,8.50
2017-05-02T03:19:04.909Z,8.50
2017-05-02T03:21:32.480Z,8.50
2017-05-02T03:24:00.100Z,8.60
2017-05-02T03:26:27.699Z,8.50
2017-05-02T03:28:56.085Z,8.50
2017-05-02T03:31:23.680Z,8.60
2017-05-02T03:33:51.273Z,8.60
2017-05-02T03:36:18.905Z,8.60
2017-05-02T03:38:46.547Z,8.60
2017-05-02T03:41:14.875Z,8.60
2017-05-02T03:43:42.492Z,8.60
2017-05-02T03:46:10.108Z,8.60
2017-05-02T03:48:38.429Z,8.60
2017-05-02T03:51:06.032Z,8.50
2017-05-02T03:53:33.705Z,8.60
2017-05-02T03:56:01.389Z,8.50
2017-05-02T03:58:28.933Z,8.50
2017-05-02T04:00:57.216Z,8.50
2017-05-02T04:03:24.760Z,8.60
2017-05-02T04:05:52.384Z,8.60
2017-05-02T04:08:19.976Z,8.50
2017-05-02T04:10:47.616Z,8.50
2017-05-02T04:13:15.235Z,8.50
2017-05-02T04:15:42.863Z,8.50
2017-05-02T04:18:11.457Z,8.40
2017-05-02T04:20:39.024Z,8.40
2017-05-02T04:23:06.644Z,8.40
2017-05-02T04:25:33.453Z,8.40
2017-05-02T04:28:01.008Z,8.40
2017-05-02T04:30:28.656Z,8.40
2017-05-02T04:32:56.204Z,8.30
2017-05-02T04:35:23.792Z,8.30
2017-05-02T04:37:51.411Z,8.30
2017-05-02T04:40:19.099Z,8.40
2017-05-02T04:42:46.682Z,8.40
2017-05-02T04:45:14.640Z,8.50
2017-05-02T04:47:42.217Z,8.50
2017-05-02T04:50:09.856Z,8.40
2017-05-02T04:52:37.460Z,8.50
2017-05-02T04:55:05.046Z,8.50
2017-05-02T04:57:32.648Z,8.50
2017-05-02T05:00:00.259Z,8.50
2017-05-02T05:02:27.124Z,8.50
2017-05-02T05:04:54.720Z,8.50
2017-05-02T05:07:22.357Z,8.50
2017-05-02T05:09:50.012Z,8.40
2017-05-02T05:12:17.611Z,8.50
2017-05-02T05:14:45.171Z,8.60
2017-05-02T05:17:12.715Z,8.50
2017-05-02T05:19:40.284Z,8.50
2017-05-02T05:22:07.878Z,8.50
2017-05-02T05:24:35.498Z,8.50
2017-05-02T05:27:03.080Z,8.50
2017-05-02T05:29:30.728Z,8.50
2017-05-02T05:31:58.356Z,8.40
2017-05-02T05:34:25.905Z,8.40
2017-05-02T05:36:53.544Z,8.40
2017-05-02T05:39:21.158Z,8.50
2017-05-02T05:41:48.848Z,8.60
2017-05-02T05:44:16.481Z,8.60
2017-05-02T05:46:44.844Z,8.60
2017-05-02T05:49:12.435Z,8.60
2017-05-02T05:51:40.052Z,8.60
2017-05-02T05:54:07.612Z,8.60
2017-05-02T05:56:35.201Z,8.60
2017-05-02T05:59:03.564Z,8.60
2017-05-02T06:01:31.891Z,8.60
2017-05-02T06:03:59.512Z,8.70
2017-05-02T06:06:27.176Z,8.80
2017-05-02T06:08:54.756Z,8.70
2017-05-02T06:11:23.080Z,8.70
2017-05-02T06:13:50.688Z,8.80
2017-05-02T06:16:18.299Z,8.70
2017-05-02T06:18:45.856Z,8.80
2017-05-02T06:21:14.540Z,8.70
2017-05-02T06:23:42.113Z,8.70
2017-05-02T06:26:09.677Z,8.70
2017-05-02T06:28:37.326Z,8.60
2017-05-02T06:31:04.956Z,8.60
2017-05-02T06:33:32.572Z,8.50
2017-05-02T06:36:00.280Z,8.50
2017-05-02T06:38:27.908Z,8.60
2017-05-02T06:40:55.500Z,8.60
2017-05-02T06:43:23.169Z,8.70
2017-05-02T06:45:50.817Z,8.70
2017-05-02T06:48:18.432Z,8.70
2017-05-02T06:50:46.775Z,8.70
2017-05-02T06:53:15.256Z,8.70
2017-05-02T06:55:43.815Z,8.70
2017-05-02T06:58:11.362Z,8.90
2017-05-02T07:00:39.700Z,9.00
2017-05-02T07:03:07.308Z,8.90
2017-05-02T07:05:34.910Z,9.00
2017-05-02T07:08:04.384Z,9.00
2017-05-02T07:10:31.992Z,8.90
2017-05-02T07:12:59.628Z,9.00
2017-05-02T07:15:27.312Z,8.90
2017-05-02T07:17:54.897Z,9.00
2017-05-02T07:20:22.452Z,9.00
2017-05-02T07:22:50.020Z,9.10
2017-05-02T07:25:17.637Z,9.10
2017-05-02T07:27:46.859Z,9.20
2017-05-02T07:30:15.496Z,9.20
2017-05-02T07:32:43.665Z,9.10
2017-05-02T07:35:11.735Z,9.20
2017-05-02T07:37:40.377Z,9.20
2017-05-02T07:40:08.008Z,9.20
2017-05-02T07:42:36.388Z,9.20
2017-05-02T07:45:03.996Z,9.20
2017-05-02T07:47:32.370Z,9.20
2017-05-02T07:50:00.715Z,9.20
2017-05-02T07:52:28.352Z,9.10
2017-05-02T07:54:55.910Z,9.20
2017-05-02T07:57:24.576Z,9.20
2017-05-02T07:59:52.940Z,9.30
2017-05-02T08:02:21.316Z,9.40
2017-05-02T08:04:48.964Z,9.40
2017-05-02T08:07:16.590Z,9.40
2017-05-02T08:09:44.564Z,9.50
2017-05-02T08:12:11.508Z,9.50
2017-05-02T08:14:39.078Z,9.50
2017-05-02T08:17:06.689Z,9.50
2017-05-02T08:19:34.320Z,9.50
2017-05-02T08:22:01.973Z,9.60
2017-05-02T08:24:29.600Z,9.60
2017-05-02T08:26:58.021Z,9.60
2017-05-02T08:29:25.620Z,9.50
2017-05-02T08:31:53.940Z,9.50
2017-05-02T08:34:21.568Z,9.50
2017-05-02T08:36:49.192Z,9.60
2017-05-02T08:39:16.811Z,9.50
2017-05-02T08:41:45.287Z,9.50
2017-05-02T08:44:13.648Z,9.60
2017-05-02T08:46:42.019Z,9.50
2017-05-02T08:49:09.680Z,9.50
2017-05-02T08:51:37.301Z,9.50
2017-05-02T08:54:04.951Z,9.50
2017-05-02T08:56:32.641Z,9.50
2017-05-02T08:59:00.240Z,9.60
2017-05-02T09:01:27.879Z,9.50
2017-05-02T09:03:56.259Z,9.60
2017-05-02T09:06:23.936Z,9.60
2017-05-02T09:08:52.296Z,9.60
2017-05-02T09:11:19.989Z,9.60
2017-05-02T09:13:47.637Z,9.70
2017-05-02T09:16:15.556Z,9.60
2017-05-02T09:18:43.966Z,9.50
2017-05-02T09:21:11.531Z,9.60
2017-05-02T09:23:39.161Z,9.60
2017-05-02T09:26:06.816Z,9.60
2017-05-02T09:28:34.573Z,9.70
2017-05-02T09:31:02.318Z,9.70
2017-05-02T09:33:30.033Z,9.70
2017-05-02T09:35:58.414Z,9.70
2017-05-02T09:38:26.008Z,9.80
2017-05-02T09:40:53.632Z,9.70
2017-05-02T09:43:21.762Z,9.80
2017-05-02T09:45:49.373Z,9.80
2017-05-02T09:48:17.743Z,9.80
2017-05-02T09:50:46.126Z,9.80
2017-05-02T09:53:14.285Z,9.90
2017-05-02T09:55:41.888Z,9.90
2017-05-02T09:58:09.492Z,9.90
2017-05-02T10:00:37.823Z,10.00
2017-05-02T10:03:05.446Z,10.20
2017-05-02T10:05:33.180Z,10.10
2017-05-02T10:08:00.751Z,10.20
2017-05-02T10:10:28.376Z,10.30
2017-05-02T10:12:56.021Z,10.30
2017-05-02T10:15:23.588Z,10.40
2017-05-02T10:17:51.289Z,10.50
2017-05-02T10:20:18.940Z,10.60
2017-05-02T10:22:46.527Z,10.60
2017-05-02T10:25:15.064Z,10.60
2017-05-02T10:27:42.603Z,10.60
2017-05-02T10:30:10.163Z,10.70
2017-05-02T10:32:37.777Z,10.60
2017-05-02T10:35:05.372Z,10.60
2017-05-02T10:37:32.941Z,10.60
2017-05-02T10:40:01.268Z,10.60
2017-05-02T10:42:29.239Z,10.70
2017-05-02T10:44:56.897Z,10.60
2017-05-02T10:47:25.256Z,10.70
2017-05-02T10:49:52.812Z,10.70
2017-05-02T10:52:20.446Z,10.80
2017-05-02T10:54:47.287Z,10.70
2017-05-02T10:57:14.903Z,10.80
2017-05-02T10:59:42.500Z,10.70
2017-05-02T11:02:10.124Z,10.70
2017-05-02T11:04:38.531Z,10.70
2017-05-02T11:07:06.092Z,10.80
2017-05-02T11:09:33.640Z,10.70
2017-05-02T11:12:01.300Z,10.60
2017-05-02T11:14:28.873Z,10.60
2017-05-02T11:16:56.436Z,10.60
2017-05-02T11:19:24.060Z,10.60
2017-05-02T11:21:52.383Z,10.50
2017-05-02T11:24:21.017Z,10.60
2017-05-02T11:26:48.596Z,10.60
2017-05-02T11:29:16.136Z,10.50
2017-05-02T11:31:43.994Z,10.50
2017-05-02T11:34:11.577Z,10.50
2017-05-02T11:36:39.864Z,10.40
2017-05-02T11:39:07.485Z,10.20
2017-05-02T11:41:35.124Z,10.20
2017-05-02T11:44:03.404Z,10.20
2017-05-02T11:46:31.016Z,10.30
2017-05-02T11:48:59.413Z,10.30
2017-05-02T11:51:27.299Z,10.30
2017-05-02T11:53:54.917Z,10.20
2017-05-02T11:56:22.492Z,10.10
2017-05-02T11:58:50.129Z,10.10
2017-05-02T12:01:17.768Z,10.10
2017-05-02T12:03:45.414Z,10.10
2017-05-02T12:06:13.039Z,10.10
2017-05-02T12:08:40.980Z,10.00
2017-05-02T12:11:08.547Z,10.00
2017-05-02T12:13:36.249Z,10.10
2017-05-02T12:16:04.680Z,10.10
2017-05-02T12:18:32.292Z,10.10
2017-05-02T12:20:59.922Z,10.20
2017-05-02T12:23:27.589Z,10.20
2017-05-02T12:25:55.189Z,10.20
2017-05-02T12:28:23.551Z,10.20
2017-05-02T12:30:51.194Z,10.30
2017-05-02T12:33:19.914Z,10.20
2017-05-02T12:35:47.511Z,10.30
2017-05-02T12:38:15.112Z,10.30
2017-05-02T12:40:42.708Z,10.30
2017-05-02T12:43:10.998Z,10.30
2017-05-02T12:45:38.752Z,10.40
2017-05-02T12:48:06.335Z,10.30
2017-05-02T12:50:33.952Z,10.30
2017-05-02T12:53:01.623Z,10.30
2017-05-02T12:57:56.977Z,10.20
2017-05-02T13:00:24.608Z,10.20
2017-05-02T13:02:52.192Z,10.20
2017-05-02T13:05:19.732Z,10.10
2017-05-02T13:07:47.348Z,10.10
2017-05-02T13:10:14.956Z,10.10
2017-05-02T13:12:42.541Z,10.20
2017-05-02T13:15:10.181Z,10.20
2017-05-02T13:17:37.825Z,10.20
2017-05-02T13:20:05.436Z,10.20
2017-05-02T13:22:33.772Z,10.10
2017-05-02T13:25:01.389Z,10.20
2017-05-02T13:27:29.021Z,10.30
2017-05-02T13:29:56.662Z,10.20
2017-05-02T13:32:24.297Z,10.20
2017-05-02T13:34:51.944Z,10.30
2017-05-02T13:37:19.592Z,10.30
2017-05-02T13:39:47.127Z,10.40
2017-05-02T13:42:15.600Z,10.40
2017-05-02T13:44:43.716Z,10.50
2017-05-02T13:47:11.303Z,10.60
2017-05-02T13:49:38.944Z,10.60
2017-05-02T13:52:06.540Z,10.60
2017-05-02T13:54:34.143Z,10.60
2017-05-02T13:57:01.759Z,10.60
2017-05-02T13:59:30.080Z,10.60
2017-05-02T14:01:57.634Z,10.60
2017-05-02T14:04:25.238Z,10.50
2017-05-02T14:06:52.920Z,10.60
2017-05-02T14:09:20.520Z,10.60
2017-05-02T14:11:48.113Z,10.60
2017-05-02T14:14:15.756Z,10.70
2017-05-02T14:16:43.467Z,10.70
2017-05-02T14:19:11.129Z,10.70
2017-05-02T14:21:38.702Z,10.70
2017-05-02T14:24:06.325Z,10.60
2017-05-02T14:26:33.944Z,10.60
2017-05-02T14:29:01.919Z,10.60
2017-05-02T14:31:29.561Z,10.50
2017-05-02T14:33:57.161Z,10.50
2017-05-02T14:36:24.820Z,10.40
2017-05-02T14:38:52.385Z,10.40
2017-05-02T14:41:20.038Z,10.50
2017-05-02T14:43:47.612Z,10.50
2017-05-02T14:46:15.286Z,10.40
2017-05-02T14:48:44.140Z,10.40
2017-05-02T14:51:11.745Z,10.40
2017-05-02T14:53:39.393Z,10.40
2017-05-02T14:56:07.017Z,10.40
2017-05-02T14:58:34.630Z,10.30
2017-05-02T15:01:02.242Z,10.30
2017-05-02T15:03:29.876Z,10.30
2017-05-02T15:05:57.505Z,10.30
2017-05-02T15:08:25.550Z,10.40
2017-05-02T15:10:53.172Z,10.30
2017-05-02T15:13:20.830Z,10.40
2017-05-02T15:15:48.366Z,10.40
2017-05-02T15:18:16.048Z,10.30
2017-05-02T15:20:43.956Z,10.30
2017-05-02T15:23:12.328Z,10.40
2017-05-02T15:25:40.603Z,10.30
2017-05-02T15:28:08.122Z,10.30
2017-05-02T15:30:35.688Z,10.30
2017-05-02T15:33:03.273Z,10.20
2017-05-02T15:35:30.868Z,10.20
2017-05-02T15:37:58.488Z,10.20
2017-05-02T15:40:26.101Z,10.20
2017-05-02T15:42:53.705Z,10.30
2017-05-02T15:45:21.288Z,10.30
2017-05-02T15:47:48.907Z,10.40
2017-05-02T15:50:16.448Z,10.40
2017-05-02T15:52:44.521Z,10.40
2017-05-02T15:55:12.121Z,10.30
2017-05-02T15:57:40.464Z,10.40
2017-05-02T16:00:08.063Z,10.40
2017-05-02T16:02:35.600Z,10.50
2017-05-02T16:05:03.237Z,10.50
2017-05-02T16:07:30.828Z,10.60
2017-05-02T16:09:58.510Z,10.50
2017-05-02T16:12:25.408Z,10.50
2017-05-02T16:14:53.006Z,10.40
2017-05-02T16:17:20.588Z,10.30
2017-05-02T16:19:48.197Z,10.30
2017-05-02T16:22:15.851Z,10.20
2017-05-02T16:24:43.474Z,10.20
2017-05-02T16:27:11.895Z,10.20
2017-05-02T16:29:39.500Z,10.20
2017-05-02T16:32:07.144Z,10.10
2017-05-02T16:34:35.816Z,10.20
2017-05-02T16:37:03.456Z,10.20
2017-05-02T16:39:31.097Z,10.30
2017-05-02T16:41:58.653Z,10.20
2017-05-02T16:44:26.355Z,10.20
2017-05-02T16:46:54.723Z,10.20
2017-05-02T16:49:23.192Z,10.30
2017-05-02T16:51:51.553Z,10.30
2017-05-02T16:54:19.860Z,10.30
2017-05-02T16:56:47.471Z,10.30
2017-05-02T16:59:15.121Z,10.20
2017-05-02T17:01:42.750Z,10.20
2017-05-02T17:04:11.455Z,10.20
2017-05-02T17:06:39.097Z,10.20
2017-05-02T17:09:06.684Z,10.20
2017-05-02T17:11:34.272Z,10.10
2017-05-02T17:14:01.839Z,10.20
2017-05-02T17:16:29.372Z,10.20
2017-05-02T17:18:56.943Z,10.20
2017-05-02T17:21:24.628Z,10.20
2017-05-02T17:23:52.957Z,10.10
2017-05-02T17:26:20.537Z,10.20
2017-05-02T17:28:48.908Z,10.10
2017-05-02T17:31:16.472Z,10.20
2017-05-02T17:33:44.336Z,10.20
2017-05-02T17:36:12.140Z,10.20
2017-05-02T17:38:40.505Z,10.20
2017-05-02T17:41:08.233Z,10.20
2017-05-02T17:43:35.927Z,10.20
2017-05-02T17:46:03.579Z,10.20
2017-05-02T17:48:31.217Z,10.20
2017-05-02T17:50:58.841Z,10.10
2017-05-02T17:53:26.607Z,10.10
2017-05-02T17:55:54.293Z,10.20
2017-05-02T17:58:22.173Z,10.10
2017-05-02T18:00:51.151Z,10.10
2017-05-02T18:03:19.307Z,10.10
2017-05-02T18:05:47.563Z,10.00
2017-05-02T18:08:15.997Z,10.00
2017-05-02T18:10:45.445Z,10.10
2017-05-02T18:13:14.187Z,10.00
2017-05-02T18:15:42.694Z,10.00
2017-05-02T18:18:11.511Z,10.00
2017-05-02T18:20:40.946Z,10.10
2017-05-02T18:23:10.282Z,10.00
2017-05-02T18:25:39.728Z,9.80
2017-05-02T18:28:09.794Z,9.80
2017-05-02T18:30:39.430Z,9.60
2017-05-02T18:33:08.954Z,9.60
2017-05-02T18:35:38.568Z,9.40
2017-05-02T18:38:09.058Z,9.40
2017-05-02T18:40:38.647Z,9.20
2017-05-02T18:43:08.126Z,9.10
2017-05-02T18:45:37.623Z,9.00
2017-05-02T18:48:07.207Z,9.10
2017-05-02T18:50:37.687Z,9.20
2017-05-02T18:53:07.336Z,9.00
2017-05-02T18:55:36.880Z,9.00
2017-05-02T18:58:06.647Z,9.00
2017-05-02T19:00:35.963Z,9.10
2017-05-02T19:03:05.638Z,9.10
2017-05-02T19:05:35.248Z,9.00
2017-05-02T19:08:05.355Z,8.80
2017-05-02T19:10:34.828Z,8.80
2017-05-02T19:13:04.438Z,8.70
2017-05-02T19:15:34.001Z,8.70
2017-05-02T19:18:04.324Z,8.80
2017-05-02T19:20:33.930Z,8.80
2017-05-02T19:23:03.563Z,8.70
2017-05-02T19:25:33.047Z,8.70
2017-05-02T19:28:02.694Z,8.70
2017-05-02T19:30:32.288Z,8.60
2017-05-02T19:33:01.879Z,8.50
2017-05-02T19:35:31.587Z,8.50
2017-05-02T19:38:01.101Z,8.40
2017-05-02T19:40:30.783Z,8.50
2017-05-02T19:43:00.263Z,8.60
2017-05-02T19:45:29.947Z,8.60
2017-05-02T19:47:59.473Z,8.50
2017-05-02T19:50:29.151Z,8.40
2017-05-02T19:52:58.982Z,8.50
2017-05-02T19:55:29.470Z,8.50
2017-05-02T19:57:58.953Z,8.50
2017-05-02T20:00:28.568Z,8.30
2017-05-02T20:02:58.098Z,8.50
2017-05-02T20:05:27.815Z,8.50
2017-05-02T20:07:57.409Z,8.50
2017-05-02T20:10:26.967Z,8.60
2017-05-02T20:12:56.632Z,8.60
2017-05-02T20:15:26.810Z,8.50
2017-05-02T20:17:56.528Z,8.60
2017-05-02T20:20:26.697Z,8.60
2017-05-02T20:22:56.379Z,8.60
2017-05-02T20:25:25.753Z,8.50
2017-05-02T20:27:55.332Z,8.50
2017-05-02T20:30:24.862Z,8.40
2017-05-02T20:32:54.280Z,8.40
2017-05-02T20:35:24.671Z,8.30
2017-05-02T20:37:54.127Z,8.20
2017-05-02T20:40:23.769Z,8.30
2017-05-02T20:42:53.436Z,8.30
2017-05-02T20:45:22.085Z,8.30
2017-05-02T20:47:51.244Z,8.30
2017-05-02T20:50:19.391Z,8.30
2017-05-02T20:52:47.384Z,8.20
2017-05-02T20:55:15.321Z,8.20
2017-05-02T20:57:43.007Z,8.20
2017-05-02T21:00:11.052Z,8.10
2017-05-02T21:02:38.834Z,8.20
2017-05-02T21:05:06.499Z,8.20
2017-05-02T21:07:34.261Z,8.20
2017-05-02T21:10:01.856Z,8.30
2017-05-02T21:12:29.444Z,8.30
2017-05-02T21:14:57.081Z,8.40
2017-05-02T21:17:24.708Z,8.40
2017-05-02T21:19:52.354Z,8.40
2017-05-02T21:22:19.991Z,8.50
2017-05-02T21:24:47.629Z,8.50
2017-05-02T21:27:15.255Z,8.50
2017-05-02T21:29:43.996Z,8.50
2017-05-02T21:32:11.592Z,8.40
2017-05-02T21:34:39.215Z,8.50
2017-05-02T21:37:07.553Z,8.50
2017-05-02T21:39:35.192Z,8.50
2017-05-02T21:42:02.804Z,8.40
2017-05-02T21:44:30.368Z,8.40
2017-05-02T21:46:57.920Z,8.30
2017-05-02T21:49:25.529Z,8.40
2017-05-02T21:51:53.108Z,8.30
2017-05-02T21:54:20.732Z,8.40
2017-05-02T21:56:48.395Z,8.30
2017-05-02T21:59:16.021Z,8.40
2017-05-02T22:01:44.035Z,8.30
2017-05-02T22:04:11.644Z,8.20
2017-05-02T22:06:39.292Z,8.10
2017-05-02T22:09:06.887Z,8.20
2017-05-02T22:11:34.506Z,8.30
2017-05-02T22:14:02.128Z,8.30
2017-05-02T22:16:29.767Z,8.20
2017-05-02T22:18:57.368Z,8.20
2017-05-02T22:21:25.017Z,8.20
2017-05-02T22:23:52.613Z,8.10
2017-05-02T22:26:20.216Z,8.00
2017-05-02T22:28:47.774Z,8.00
2017-05-02T22:31:15.340Z,7.90
2017-05-02T22:33:42.948Z,7.90
2017-05-02T22:36:10.490Z,7.90
2017-05-02T22:38:38.304Z,7.90
2017-05-02T22:41:06.632Z,7.90
2017-05-02T22:43:34.694Z,7.90
2017-05-02T22:46:02.336Z,7.90
2017-05-02T22:48:29.929Z,7.90
2017-05-02T22:50:58.180Z,8.00
2017-05-02T22:53:25.774Z,7.90
2017-05-02T22:55:53.416Z,7.90
2017-05-02T22:58:21.062Z,7.90
2017-05-02T23:00:48.652Z,7.90
2017-05-02T23:03:16.197Z,8.00
2017-05-02T23:05:43.769Z,8.00
2017-05-02T23:08:11.388Z,8.00
2017-05-02T23:10:38.944Z,8.00
2017-05-02T23:13:06.581Z,8.00
2017-05-02T23:15:34.148Z,7.90
2017-05-02T23:18:02.502Z,7.90
2017-05-02T23:20:30.871Z,7.90
2017-05-02T23:22:59.162Z,7.90
2017-05-02T23:25:26.755Z,8.00
2017-05-02T23:27:54.417Z,8.00
2017-05-02T23:30:21.959Z,8.10
2017-05-02T23:32:50.304Z,8.00
2017-05-02T23:35:17.881Z,8.10
2017-05-02T23:37:46.200Z,8.10
2017-05-02T23:40:13.741Z,8.00
2017-05-02T23:42:41.425Z,8.00
2017-05-02T23:45:10.104Z,8.00
2017-05-02T23:47:37.752Z,8.00
2017-05-02T23:50:05.401Z,8.00
2017-05-02T23:52:32.976Z,8.10
2017-05-02T23:55:00.628Z,8.20
2017-05-02T23:57:28.229Z,8.10
2017-05-02T23:59:55.896Z,8.10
